DLH596 DNAA-EDDF
Flight info
| Callsign | DLH596 |
|---|---|
| Flight time | N/A |
| Altitude | 37000 |
| Route | OXORU1Q OXORU DCT MIMBA UA604 AS UR978 CSO UA605 CIRTA DCT ERETI DCT OMARD DCT NOSTA DCT NOPMU DCT ABESI DCT LADOL T163 EMPAX EMPAX5C |
| Aircraft | A343/H-SDE2E3FGHIJ3J5M1P2RWXYZ/LB1D1 |
Departure
| Time | 2026-04-30 10:58 |
|---|---|
| Airport | Nnamdi Azikiwe International Airport (DNAA) |
Arrival
| Time | N/A |
|---|---|
| Airport | Frankfurt Main Airport (EDDF) |
| Time | Latitude | Longitude | Altitude | Speed | Heading |
|---|---|---|---|---|---|
| 2026-04-30 10:44 | 9.00708 | 7.26695 | 1129 ft | 0 kts | 180° |
| 2026-04-30 10:50 | 9.00726 | 7.26696 | 1137 ft | 4 kts | 186° |
| 2026-04-30 10:50 | 9.00753 | 7.26700 | 1132 ft | 4 kts | 198° |
| 2026-04-30 10:50 | 9.00777 | 7.26711 | 1135 ft | 4 kts | 218° |
| 2026-04-30 10:51 | 9.00792 | 7.26730 | 1135 ft | 3 kts | 264° |
| 2026-04-30 10:51 | 9.00793 | 7.26738 | 1133 ft | 0 kts | 269° |
| 2026-04-30 10:53 | 9.00793 | 7.26721 | 1135 ft | 7 kts | 269° |
| 2026-04-30 10:53 | 9.00787 | 7.26631 | 1120 ft | 18 kts | 256° |
| 2026-04-30 10:53 | 9.00680 | 7.26521 | 1115 ft | 28 kts | 213° |
| 2026-04-30 10:54 | 9.00494 | 7.26392 | 1111 ft | 34 kts | 215° |
| 2026-04-30 10:54 | 9.00308 | 7.26258 | 1106 ft | 32 kts | 215° |
| 2026-04-30 10:54 | 9.00126 | 7.26130 | 1110 ft | 32 kts | 215° |
| 2026-04-30 10:54 | 8.99946 | 7.26003 | 1099 ft | 32 kts | 215° |
| 2026-04-30 10:55 | 8.99764 | 7.25873 | 1099 ft | 31 kts | 215° |
| 2026-04-30 10:55 | 8.99585 | 7.25746 | 1099 ft | 31 kts | 215° |
| 2026-04-30 10:55 | 8.99414 | 7.25627 | 1099 ft | 29 kts | 214° |
| 2026-04-30 10:55 | 8.99292 | 7.25510 | 1099 ft | 17 kts | 258° |
| 2026-04-30 10:56 | 8.99320 | 7.25434 | 1100 ft | 11 kts | 305° |
| 2026-04-30 10:56 | 8.99385 | 7.25410 | 1100 ft | 11 kts | 11° |
| 2026-04-30 10:56 | 8.99449 | 7.25448 | 1097 ft | 13 kts | 36° |
| 2026-04-30 10:56 | 8.99652 | 7.25592 | 1098 ft | 62 kts | 34° |
| 2026-04-30 10:57 | 9.00146 | 7.25941 | 1107 ft | 109 kts | 35° |
| 2026-04-30 10:57 | 9.00888 | 7.26466 | 1109 ft | 149 kts | 35° |
| 2026-04-30 10:57 | 9.01846 | 7.27116 | 1151 ft | 182 kts | 31° |
| 2026-04-30 10:57 | 9.02965 | 7.27824 | 1430 ft | 195 kts | 31° |
| 2026-04-30 10:58 | 9.04122 | 7.28565 | 1964 ft | 197 kts | 31° |
| 2026-04-30 10:58 | 9.05386 | 7.28982 | 2569 ft | 190 kts | 355° |
| 2026-04-30 10:58 | 9.06539 | 7.28445 | 2983 ft | 193 kts | 311° |
| 2026-04-30 10:58 | 9.07328 | 7.27258 | 3232 ft | 218 kts | 298° |
| 2026-04-30 10:59 | 9.08083 | 7.25860 | 3701 ft | 232 kts | 299° |
| 2026-04-30 10:59 | 9.08874 | 7.24421 | 4424 ft | 237 kts | 301° |
| 2026-04-30 10:59 | 9.09702 | 7.22946 | 5045 ft | 244 kts | 302° |
| 2026-04-30 10:59 | 9.10560 | 7.21434 | 5641 ft | 253 kts | 301° |
| 2026-04-30 11:00 | 9.11457 | 7.19857 | 6222 ft | 261 kts | 302° |
| 2026-04-30 11:00 | 9.12376 | 7.18247 | 6870 ft | 266 kts | 302° |
| 2026-04-30 11:00 | 9.13318 | 7.16615 | 7578 ft | 270 kts | 304° |
| 2026-04-30 11:00 | 9.14546 | 7.15182 | 8165 ft | 271 kts | 328° |
| 2026-04-30 11:01 | 9.16266 | 7.14481 | 8766 ft | 270 kts | 356° |
| 2026-04-30 11:01 | 9.18143 | 7.14667 | 9338 ft | 274 kts | 19° |
| 2026-04-30 11:01 | 9.19948 | 7.15256 | 10020 ft | 278 kts | 22° |
| 2026-04-30 11:01 | 9.21818 | 7.15895 | 10482 ft | 290 kts | 21° |
| 2026-04-30 11:02 | 9.23787 | 7.16557 | 10788 ft | 306 kts | 21° |
| 2026-04-30 11:02 | 9.25867 | 7.17244 | 11088 ft | 322 kts | 21° |
| 2026-04-30 11:02 | 9.28044 | 7.17958 | 11382 ft | 336 kts | 21° |
| 2026-04-30 11:02 | 9.30304 | 7.18696 | 11814 ft | 345 kts | 20° |
| 2026-04-30 11:03 | 9.32618 | 7.19450 | 12350 ft | 350 kts | 21° |
| 2026-04-30 11:03 | 9.34948 | 7.20210 | 12909 ft | 354 kts | 20° |
| 2026-04-30 11:03 | 9.37306 | 7.20979 | 13478 ft | 358 kts | 21° |
| 2026-04-30 11:04 | 9.42105 | 7.22547 | 14449 ft | 367 kts | 21° |
| 2026-04-30 11:04 | 9.44519 | 7.23335 | 14942 ft | 370 kts | 20° |
| 2026-04-30 11:04 | 9.46982 | 7.24140 | 15480 ft | 373 kts | 20° |
| 2026-04-30 11:04 | 9.49463 | 7.24951 | 16004 ft | 376 kts | 20° |
| 2026-04-30 11:05 | 9.51968 | 7.25770 | 16520 ft | 379 kts | 20° |
| 2026-04-30 11:05 | 9.54489 | 7.26594 | 17052 ft | 383 kts | 20° |
| 2026-04-30 11:05 | 9.57035 | 7.27427 | 17558 ft | 386 kts | 20° |
| 2026-04-30 11:05 | 9.59605 | 7.28267 | 18070 ft | 390 kts | 20° |
| 2026-04-30 11:06 | 9.62206 | 7.29118 | 18527 ft | 393 kts | 20° |
| 2026-04-30 11:06 | 9.64820 | 7.29974 | 18966 ft | 396 kts | 20° |
| 2026-04-30 11:06 | 9.67460 | 7.30837 | 19405 ft | 399 kts | 20° |
| 2026-04-30 11:06 | 9.70112 | 7.31705 | 19843 ft | 402 kts | 20° |
| 2026-04-30 11:07 | 9.72792 | 7.32582 | 20263 ft | 405 kts | 21° |
| 2026-04-30 11:07 | 9.75483 | 7.33463 | 20713 ft | 408 kts | 21° |
| 2026-04-30 11:07 | 9.78199 | 7.34353 | 21115 ft | 411 kts | 20° |
| 2026-04-30 11:07 | 9.80918 | 7.35243 | 21526 ft | 413 kts | 20° |
| 2026-04-30 11:08 | 9.83666 | 7.36143 | 21934 ft | 416 kts | 20° |
| 2026-04-30 11:08 | 9.86424 | 7.37047 | 22353 ft | 419 kts | 20° |
| 2026-04-30 11:08 | 9.89211 | 7.37951 | 22768 ft | 421 kts | 20° |
| 2026-04-30 11:08 | 9.92026 | 7.38840 | 23154 ft | 424 kts | 19° |
| 2026-04-30 11:09 | 9.94847 | 7.39719 | 23528 ft | 427 kts | 19° |
| 2026-04-30 11:09 | 9.97665 | 7.40594 | 23845 ft | 429 kts | 19° |
| 2026-04-30 11:09 | 10.00527 | 7.41485 | 24158 ft | 432 kts | 19° |
| 2026-04-30 11:09 | 10.03410 | 7.42386 | 24489 ft | 434 kts | 19° |
| 2026-04-30 11:10 | 10.06306 | 7.43293 | 24807 ft | 436 kts | 19° |
| 2026-04-30 11:10 | 10.09221 | 7.44209 | 25129 ft | 439 kts | 19° |
| 2026-04-30 11:10 | 10.12139 | 7.45126 | 25435 ft | 441 kts | 19° |
| 2026-04-30 11:10 | 10.14090 | 7.45739 | 25676 ft | 442 kts | 19° |
| 2026-04-30 11:11 | 10.17994 | 7.46967 | 26108 ft | 444 kts | 19° |
| 2026-04-30 11:11 | 10.20951 | 7.47897 | 26420 ft | 446 kts | 19° |
| 2026-04-30 11:11 | 10.23935 | 7.48836 | 26739 ft | 449 kts | 19° |
| 2026-04-30 11:11 | 10.26920 | 7.49776 | 27032 ft | 451 kts | 19° |
| 2026-04-30 11:12 | 10.29929 | 7.50723 | 27338 ft | 453 kts | 19° |
| 2026-04-30 11:12 | 10.32950 | 7.51674 | 27631 ft | 455 kts | 19° |
| 2026-04-30 11:12 | 10.35976 | 7.52627 | 27911 ft | 457 kts | 19° |
| 2026-04-30 11:12 | 10.39020 | 7.53585 | 28193 ft | 459 kts | 19° |
| 2026-04-30 11:13 | 10.42088 | 7.54552 | 28469 ft | 461 kts | 19° |
| 2026-04-30 11:13 | 10.45164 | 7.55521 | 28742 ft | 463 kts | 19° |
| 2026-04-30 11:13 | 10.48243 | 7.56491 | 29005 ft | 465 kts | 19° |
| 2026-04-30 11:13 | 10.51314 | 7.57459 | 29223 ft | 468 kts | 19° |
| 2026-04-30 11:14 | 10.54439 | 7.58444 | 29483 ft | 470 kts | 19° |
| 2026-04-30 11:14 | 10.57570 | 7.59432 | 29729 ft | 472 kts | 18° |
| 2026-04-30 11:14 | 10.60722 | 7.60426 | 30005 ft | 474 kts | 18° |
| 2026-04-30 11:14 | 10.63875 | 7.61420 | 30221 ft | 475 kts | 18° |
| 2026-04-30 11:15 | 10.67035 | 7.62417 | 30422 ft | 477 kts | 18° |
| 2026-04-30 11:15 | 10.69144 | 7.63083 | 30559 ft | 478 kts | 18° |
| 2026-04-30 11:15 | 10.73405 | 7.64428 | 30834 ft | 480 kts | 18° |
| 2026-04-30 11:15 | 10.76602 | 7.65437 | 31034 ft | 482 kts | 18° |
| 2026-04-30 11:16 | 10.79814 | 7.66452 | 31224 ft | 483 kts | 18° |
| 2026-04-30 11:16 | 10.83025 | 7.67466 | 31476 ft | 483 kts | 18° |
| 2026-04-30 11:16 | 10.86235 | 7.68479 | 31751 ft | 483 kts | 18° |
| 2026-04-30 11:16 | 10.89439 | 7.69492 | 32018 ft | 482 kts | 18° |
| 2026-04-30 11:17 | 10.92637 | 7.70502 | 32278 ft | 482 kts | 18° |
| 2026-04-30 11:17 | 10.95838 | 7.71514 | 32548 ft | 481 kts | 18° |
| 2026-04-30 11:17 | 10.99030 | 7.72524 | 32808 ft | 481 kts | 18° |
| 2026-04-30 11:17 | 11.02233 | 7.73537 | 33057 ft | 480 kts | 18° |
| 2026-04-30 11:18 | 11.04343 | 7.74205 | 33223 ft | 480 kts | 18° |
| 2026-04-30 11:18 | 11.11755 | 7.76550 | 33795 ft | 479 kts | 18° |
| 2026-04-30 11:18 | 11.14938 | 7.77558 | 34030 ft | 478 kts | 18° |
| 2026-04-30 11:19 | 11.17090 | 7.78239 | 34164 ft | 478 kts | 18° |
| 2026-04-30 11:19 | 11.20232 | 7.79234 | 34364 ft | 478 kts | 18° |
| 2026-04-30 11:19 | 11.23399 | 7.80238 | 34606 ft | 475 kts | 18° |
| 2026-04-30 11:19 | 11.26541 | 7.81233 | 34868 ft | 473 kts | 18° |
| 2026-04-30 11:20 | 11.29690 | 7.82231 | 35051 ft | 473 kts | 18° |
| 2026-04-30 11:20 | 11.32831 | 7.83227 | 35255 ft | 472 kts | 18° |
| 2026-04-30 11:20 | 11.35977 | 7.84224 | 35422 ft | 472 kts | 18° |
| 2026-04-30 11:20 | 11.39116 | 7.85220 | 35619 ft | 471 kts | 18° |
| 2026-04-30 11:21 | 11.42249 | 7.86214 | 35782 ft | 471 kts | 18° |
| 2026-04-30 11:21 | 11.45349 | 7.87198 | 35973 ft | 470 kts | 18° |
| 2026-04-30 11:21 | 11.48467 | 7.88188 | 36141 ft | 470 kts | 18° |
| 2026-04-30 11:21 | 11.51596 | 7.89181 | 36306 ft | 469 kts | 18° |
| 2026-04-30 11:22 | 11.54714 | 7.90171 | 36447 ft | 469 kts | 18° |
| 2026-04-30 11:22 | 11.57835 | 7.91162 | 36611 ft | 468 kts | 18° |
| 2026-04-30 11:22 | 11.60943 | 7.92149 | 36819 ft | 468 kts | 18° |
| 2026-04-30 11:22 | 11.64054 | 7.93138 | 36980 ft | 467 kts | 18° |
| 2026-04-30 11:23 | 11.67160 | 7.94125 | 37097 ft | 467 kts | 18° |
| 2026-04-30 11:23 | 11.70272 | 7.95114 | 37239 ft | 467 kts | 18° |
| 2026-04-30 11:23 | 11.76441 | 7.97076 | 37506 ft | 467 kts | 18° |
| 2026-04-30 11:24 | 11.79529 | 7.98058 | 37701 ft | 465 kts | 18° |
| 2026-04-30 11:24 | 11.82629 | 7.99045 | 37889 ft | 464 kts | 18° |
| 2026-04-30 11:24 | 11.85714 | 8.00027 | 37948 ft | 465 kts | 18° |
| 2026-04-30 11:25 | 11.94947 | 8.02967 | 37954 ft | 463 kts | 18° |
| 2026-04-30 11:26 | 12.07263 | 8.06892 | 37934 ft | 464 kts | 18° |
| 2026-04-30 11:26 | 12.13413 | 8.08854 | 37937 ft | 464 kts | 18° |
| 2026-04-30 11:27 | 12.19584 | 8.10823 | 37950 ft | 464 kts | 18° |
| 2026-04-30 11:27 | 12.25749 | 8.12791 | 37931 ft | 464 kts | 18° |
| 2026-04-30 11:28 | 12.34934 | 8.15724 | 37938 ft | 461 kts | 18° |
| 2026-04-30 11:29 | 12.41063 | 8.17683 | 37929 ft | 459 kts | 18° |
| 2026-04-30 11:29 | 12.50172 | 8.20597 | 37920 ft | 459 kts | 18° |
| 2026-04-30 11:30 | 12.59322 | 8.23526 | 37935 ft | 459 kts | 18° |
| 2026-04-30 11:31 | 12.65425 | 8.25480 | 37934 ft | 459 kts | 18° |
| 2026-04-30 11:31 | 12.71491 | 8.27423 | 37913 ft | 458 kts | 18° |
| 2026-04-30 11:32 | 12.77583 | 8.29377 | 37930 ft | 458 kts | 18° |
| 2026-04-30 11:32 | 12.83672 | 8.31329 | 37911 ft | 458 kts | 18° |
| 2026-04-30 11:33 | 12.92801 | 8.34260 | 37908 ft | 458 kts | 18° |
| 2026-04-30 11:33 | 12.98853 | 8.36203 | 37915 ft | 458 kts | 18° |
| 2026-04-30 11:34 | 13.04947 | 8.38140 | 37915 ft | 458 kts | 15° |
| 2026-04-30 11:34 | 13.11264 | 8.38902 | 37932 ft | 459 kts | 358° |
| 2026-04-30 11:35 | 13.17642 | 8.38453 | 37928 ft | 460 kts | 356° |
| 2026-04-30 11:35 | 13.24025 | 8.37829 | 37915 ft | 461 kts | 355° |
| 2026-04-30 11:36 | 13.30415 | 8.37199 | 37922 ft | 461 kts | 355° |
| 2026-04-30 11:36 | 13.36796 | 8.36591 | 37912 ft | 460 kts | 355° |
| 2026-04-30 11:37 | 13.43176 | 8.35995 | 37910 ft | 461 kts | 356° |
| 2026-04-30 11:37 | 13.49538 | 8.35401 | 37924 ft | 461 kts | 356° |
| 2026-04-30 11:38 | 13.55929 | 8.34804 | 37930 ft | 461 kts | 356° |
| 2026-04-30 11:38 | 13.62333 | 8.34205 | 37916 ft | 461 kts | 356° |
| 2026-04-30 11:39 | 13.68726 | 8.33606 | 37919 ft | 461 kts | 355° |
| 2026-04-30 11:39 | 13.75081 | 8.33010 | 37909 ft | 461 kts | 355° |
| 2026-04-30 11:40 | 13.81480 | 8.32414 | 37922 ft | 461 kts | 355° |
| 2026-04-30 11:40 | 13.87872 | 8.31810 | 37934 ft | 461 kts | 355° |
| 2026-04-30 11:41 | 13.94254 | 8.31206 | 37920 ft | 461 kts | 355° |
| 2026-04-30 11:41 | 14.00652 | 8.30603 | 37917 ft | 461 kts | 355° |
| 2026-04-30 11:42 | 14.07042 | 8.30001 | 37923 ft | 461 kts | 355° |
| 2026-04-30 11:42 | 14.13401 | 8.29402 | 37913 ft | 461 kts | 355° |
| 2026-04-30 11:43 | 14.19794 | 8.28799 | 37926 ft | 461 kts | 355° |
| 2026-04-30 11:43 | 14.26195 | 8.28194 | 37935 ft | 461 kts | 355° |
| 2026-04-30 11:44 | 14.32589 | 8.27590 | 37920 ft | 461 kts | 355° |
| 2026-04-30 11:44 | 14.38989 | 8.26985 | 37919 ft | 462 kts | 355° |
| 2026-04-30 11:45 | 14.45381 | 8.26381 | 37934 ft | 461 kts | 355° |
| 2026-04-30 11:45 | 14.51741 | 8.25780 | 37918 ft | 461 kts | 355° |
| 2026-04-30 11:46 | 14.58136 | 8.25174 | 37919 ft | 462 kts | 355° |
| 2026-04-30 11:46 | 14.64540 | 8.24567 | 37920 ft | 462 kts | 355° |
| 2026-04-30 11:47 | 14.70939 | 8.23961 | 37921 ft | 461 kts | 355° |
| 2026-04-30 11:47 | 14.77330 | 8.23355 | 37919 ft | 461 kts | 355° |
| 2026-04-30 11:48 | 14.83688 | 8.22752 | 37913 ft | 462 kts | 355° |
| 2026-04-30 11:48 | 14.90101 | 8.22143 | 37928 ft | 462 kts | 355° |
| 2026-04-30 11:49 | 14.96514 | 8.21533 | 37917 ft | 462 kts | 355° |
| 2026-04-30 11:49 | 15.02920 | 8.20924 | 37918 ft | 462 kts | 355° |
| 2026-04-30 11:50 | 15.09330 | 8.20315 | 37914 ft | 462 kts | 355° |
| 2026-04-30 11:50 | 15.15743 | 8.19708 | 37916 ft | 462 kts | 354° |
| 2026-04-30 11:51 | 15.22170 | 8.19100 | 37918 ft | 464 kts | 354° |
| 2026-04-30 11:51 | 15.28600 | 8.18489 | 37916 ft | 464 kts | 354° |
| 2026-04-30 11:52 | 15.34999 | 8.17882 | 37920 ft | 464 kts | 354° |
| 2026-04-30 11:52 | 15.41438 | 8.17270 | 37917 ft | 464 kts | 354° |
| 2026-04-30 11:53 | 15.47876 | 8.16658 | 37923 ft | 464 kts | 354° |
| 2026-04-30 11:53 | 15.54276 | 8.16050 | 37925 ft | 464 kts | 353° |
| 2026-04-30 11:54 | 15.60691 | 8.15439 | 37923 ft | 463 kts | 354° |
| 2026-04-30 11:54 | 15.67127 | 8.14826 | 37919 ft | 463 kts | 354° |
| 2026-04-30 11:55 | 15.73548 | 8.14214 | 37918 ft | 463 kts | 354° |
| 2026-04-30 11:55 | 15.79974 | 8.13602 | 37922 ft | 463 kts | 353° |
| 2026-04-30 11:56 | 15.86395 | 8.12989 | 37922 ft | 463 kts | 352° |
| 2026-04-30 11:56 | 15.92774 | 8.12379 | 37920 ft | 463 kts | 353° |
| 2026-04-30 11:57 | 15.99192 | 8.11767 | 37919 ft | 463 kts | 352° |
| 2026-04-30 11:57 | 16.05614 | 8.11153 | 37915 ft | 463 kts | 353° |
| 2026-04-30 11:58 | 16.12031 | 8.10538 | 37918 ft | 463 kts | 353° |
| 2026-04-30 11:58 | 16.18459 | 8.09924 | 37918 ft | 463 kts | 353° |
| 2026-04-30 11:59 | 16.24880 | 8.09308 | 37918 ft | 464 kts | 352° |
| 2026-04-30 11:59 | 16.31293 | 8.08692 | 37915 ft | 465 kts | 353° |
| 2026-04-30 12:00 | 16.37737 | 8.08074 | 37919 ft | 465 kts | 352° |
| 2026-04-30 12:00 | 16.44175 | 8.07457 | 37917 ft | 465 kts | 352° |
| 2026-04-30 12:01 | 16.50623 | 8.06838 | 37921 ft | 465 kts | 352° |
| 2026-04-30 12:01 | 16.55971 | 8.06324 | 37924 ft | 465 kts | 352° |
| 2026-04-30 12:02 | 16.63511 | 8.05599 | 37918 ft | 466 kts | 352° |
| 2026-04-30 12:02 | 16.69928 | 8.04982 | 37917 ft | 466 kts | 352° |
| 2026-04-30 12:03 | 16.79608 | 8.04050 | 37914 ft | 466 kts | 352° |
| 2026-04-30 12:04 | 16.86073 | 8.03427 | 37913 ft | 466 kts | 352° |
| 2026-04-30 12:04 | 16.89297 | 8.03116 | 38025 ft | 466 kts | 352° |
| 2026-04-30 12:04 | 16.92522 | 8.02805 | 38021 ft | 466 kts | 352° |
| 2026-04-30 12:05 | 16.98985 | 8.02182 | 38021 ft | 466 kts | 352° |
| 2026-04-30 12:05 | 17.05424 | 8.01646 | 38018 ft | 467 kts | 353° |
| 2026-04-30 12:06 | 17.11904 | 8.01151 | 37998 ft | 467 kts | 352° |
| 2026-04-30 12:06 | 17.18380 | 8.00644 | 37972 ft | 466 kts | 352° |
| 2026-04-30 12:07 | 17.23767 | 8.00213 | 37950 ft | 466 kts | 353° |
| 2026-04-30 12:07 | 17.30253 | 7.99690 | 37922 ft | 467 kts | 352° |
| 2026-04-30 12:08 | 17.36752 | 7.99164 | 37912 ft | 468 kts | 352° |
| 2026-04-30 12:08 | 17.43195 | 7.98645 | 37912 ft | 468 kts | 352° |
| 2026-04-30 12:09 | 17.49696 | 7.98120 | 37905 ft | 467 kts | 352° |
| 2026-04-30 12:09 | 17.56180 | 7.97596 | 37907 ft | 468 kts | 352° |
| 2026-04-30 12:10 | 17.62677 | 7.97071 | 37909 ft | 467 kts | 352° |
| 2026-04-30 12:10 | 17.69155 | 7.96546 | 37910 ft | 467 kts | 352° |
| 2026-04-30 12:11 | 17.75616 | 7.96023 | 37905 ft | 467 kts | 352° |
| 2026-04-30 12:11 | 17.82102 | 7.95497 | 37908 ft | 467 kts | 352° |
| 2026-04-30 12:12 | 17.88596 | 7.94970 | 37909 ft | 467 kts | 352° |
| 2026-04-30 12:12 | 17.95088 | 7.94444 | 37910 ft | 467 kts | 352° |
| 2026-04-30 12:13 | 18.01541 | 7.93920 | 37907 ft | 467 kts | 352° |
| 2026-04-30 12:13 | 18.08022 | 7.93393 | 37910 ft | 467 kts | 352° |
| 2026-04-30 12:14 | 18.14516 | 7.92864 | 37905 ft | 467 kts | 352° |
| 2026-04-30 12:14 | 18.21014 | 7.92336 | 37905 ft | 467 kts | 352° |
| 2026-04-30 12:15 | 18.27507 | 7.91806 | 37902 ft | 467 kts | 352° |
| 2026-04-30 12:15 | 18.33945 | 7.91282 | 37907 ft | 468 kts | 352° |
| 2026-04-30 12:16 | 18.40443 | 7.90751 | 37910 ft | 468 kts | 352° |
| 2026-04-30 12:16 | 18.46936 | 7.90222 | 37908 ft | 468 kts | 352° |
| 2026-04-30 12:17 | 18.56674 | 7.89426 | 37905 ft | 468 kts | 352° |
| 2026-04-30 12:17 | 18.63178 | 7.88893 | 37908 ft | 468 kts | 352° |
| 2026-04-30 12:18 | 18.69634 | 7.88365 | 37912 ft | 469 kts | 352° |
| 2026-04-30 12:18 | 18.76149 | 7.87831 | 37913 ft | 469 kts | 352° |
| 2026-04-30 12:19 | 18.82661 | 7.87297 | 37911 ft | 469 kts | 352° |
| 2026-04-30 12:19 | 18.89133 | 7.86767 | 37905 ft | 469 kts | 352° |
| 2026-04-30 12:20 | 18.95641 | 7.86232 | 37922 ft | 469 kts | 352° |
| 2026-04-30 12:20 | 19.02155 | 7.85696 | 37904 ft | 469 kts | 352° |
| 2026-04-30 12:21 | 19.08652 | 7.85162 | 37918 ft | 469 kts | 352° |
| 2026-04-30 12:21 | 19.15160 | 7.84627 | 37912 ft | 469 kts | 352° |
| 2026-04-30 12:22 | 19.21651 | 7.84092 | 37919 ft | 469 kts | 352° |
| 2026-04-30 12:22 | 19.28153 | 7.83556 | 37915 ft | 469 kts | 352° |
| 2026-04-30 12:23 | 19.34663 | 7.83019 | 37919 ft | 469 kts | 352° |
| 2026-04-30 12:23 | 19.41168 | 7.82482 | 37925 ft | 469 kts | 352° |
| 2026-04-30 12:24 | 19.47678 | 7.81944 | 37918 ft | 469 kts | 352° |
| 2026-04-30 12:24 | 19.54196 | 7.81410 | 37912 ft | 469 kts | 352° |
| 2026-04-30 12:25 | 19.60693 | 7.80896 | 37929 ft | 469 kts | 352° |
| 2026-04-30 12:25 | 19.67206 | 7.80383 | 37932 ft | 469 kts | 352° |
| 2026-04-30 12:26 | 19.73725 | 7.79866 | 37937 ft | 469 kts | 352° |
| 2026-04-30 12:26 | 19.80193 | 7.79351 | 37926 ft | 469 kts | 352° |
| 2026-04-30 12:27 | 19.86697 | 7.78833 | 37927 ft | 469 kts | 352° |
| 2026-04-30 12:27 | 19.93216 | 7.78313 | 37934 ft | 469 kts | 352° |
| 2026-04-30 12:28 | 19.99723 | 7.77794 | 37929 ft | 469 kts | 351° |
| 2026-04-30 12:28 | 20.06222 | 7.77275 | 37933 ft | 468 kts | 351° |
| 2026-04-30 12:29 | 20.12686 | 7.76757 | 37932 ft | 468 kts | 351° |
| 2026-04-30 12:29 | 20.19184 | 7.76237 | 37936 ft | 468 kts | 351° |
| 2026-04-30 12:30 | 20.25692 | 7.75716 | 37932 ft | 468 kts | 351° |
| 2026-04-30 12:30 | 20.32164 | 7.75197 | 37942 ft | 468 kts | 351° |
| 2026-04-30 12:31 | 20.38653 | 7.74677 | 37936 ft | 467 kts | 351° |
| 2026-04-30 12:31 | 20.45131 | 7.74157 | 37934 ft | 467 kts | 351° |
| 2026-04-30 12:32 | 20.51618 | 7.73634 | 37936 ft | 467 kts | 351° |
| 2026-04-30 12:32 | 20.58101 | 7.73113 | 37936 ft | 467 kts | 351° |
| 2026-04-30 12:33 | 20.64550 | 7.72594 | 37943 ft | 467 kts | 350° |
| 2026-04-30 12:33 | 20.71018 | 7.72073 | 37942 ft | 465 kts | 350° |
| 2026-04-30 12:34 | 20.77474 | 7.71553 | 37939 ft | 465 kts | 350° |
| 2026-04-30 12:34 | 20.83931 | 7.71031 | 37942 ft | 465 kts | 350° |
| 2026-04-30 12:35 | 20.90386 | 7.70509 | 37942 ft | 465 kts | 350° |
| 2026-04-30 12:35 | 20.96839 | 7.69987 | 37962 ft | 465 kts | 350° |
| 2026-04-30 12:36 | 21.03214 | 7.69259 | 37938 ft | 461 kts | 346° |
| 2026-04-30 12:36 | 21.09562 | 7.68278 | 37941 ft | 460 kts | 346° |
| 2026-04-30 12:37 | 21.15916 | 7.67323 | 37943 ft | 460 kts | 346° |
| 2026-04-30 12:37 | 21.22270 | 7.66417 | 37946 ft | 461 kts | 347° |
| 2026-04-30 12:38 | 21.28599 | 7.65533 | 37950 ft | 461 kts | 347° |
| 2026-04-30 12:38 | 21.34958 | 7.64645 | 37947 ft | 461 kts | 347° |
| 2026-04-30 12:39 | 21.41329 | 7.63752 | 37951 ft | 461 kts | 347° |
| 2026-04-30 12:39 | 21.47688 | 7.62859 | 37951 ft | 461 kts | 347° |
| 2026-04-30 12:40 | 21.54057 | 7.61964 | 37951 ft | 461 kts | 347° |
| 2026-04-30 12:40 | 21.60385 | 7.61074 | 37947 ft | 461 kts | 347° |
| 2026-04-30 12:41 | 21.63562 | 7.60626 | 39366 ft | 461 kts | 351° |
| 2026-04-30 12:41 | 21.66755 | 7.60175 | 39142 ft | 465 kts | 352° |
| 2026-04-30 12:41 | 21.69979 | 7.59720 | 38902 ft | 470 kts | 352° |
| 2026-04-30 12:41 | 21.73239 | 7.59261 | 38653 ft | 474 kts | 352° |
| 2026-04-30 12:42 | 21.76540 | 7.58797 | 38400 ft | 479 kts | 352° |
| 2026-04-30 12:42 | 21.79861 | 7.58328 | 38147 ft | 484 kts | 352° |
| 2026-04-30 12:42 | 21.83222 | 7.57854 | 38006 ft | 486 kts | 352° |
| 2026-04-30 12:42 | 21.86576 | 7.57381 | 37996 ft | 485 kts | 352° |
| 2026-04-30 12:43 | 21.93254 | 7.56437 | 38001 ft | 483 kts | 352° |
| 2026-04-30 12:43 | 21.99858 | 7.55503 | 38001 ft | 481 kts | 352° |
| 2026-04-30 12:44 | 22.06487 | 7.54565 | 38001 ft | 479 kts | 352° |
| 2026-04-30 12:44 | 22.13104 | 7.53627 | 38001 ft | 478 kts | 352° |
| 2026-04-30 12:45 | 22.19680 | 7.52694 | 38001 ft | 476 kts | 352° |
| 2026-04-30 12:45 | 22.26239 | 7.51763 | 38001 ft | 474 kts | 352° |
| 2026-04-30 12:46 | 22.32777 | 7.50833 | 38001 ft | 473 kts | 352° |
| 2026-04-30 12:46 | 22.39266 | 7.49910 | 38001 ft | 472 kts | 352° |
| 2026-04-30 12:47 | 22.45770 | 7.48984 | 38001 ft | 470 kts | 352° |
| 2026-04-30 12:47 | 22.52244 | 7.48061 | 38001 ft | 469 kts | 352° |
| 2026-04-30 12:48 | 22.58718 | 7.47138 | 38001 ft | 468 kts | 352° |
| 2026-04-30 12:48 | 22.65128 | 7.46222 | 38001 ft | 467 kts | 352° |
| 2026-04-30 12:49 | 22.71558 | 7.45303 | 38001 ft | 466 kts | 352° |
| 2026-04-30 12:49 | 22.77992 | 7.44383 | 38001 ft | 465 kts | 352° |
| 2026-04-30 12:50 | 22.84391 | 7.43466 | 38001 ft | 464 kts | 352° |
| 2026-04-30 12:50 | 22.90780 | 7.42551 | 38001 ft | 463 kts | 352° |
| 2026-04-30 12:51 | 22.97165 | 7.41634 | 38001 ft | 462 kts | 352° |
| 2026-04-30 12:51 | 23.03533 | 7.40720 | 38001 ft | 461 kts | 352° |
| 2026-04-30 12:52 | 23.09899 | 7.39805 | 38001 ft | 460 kts | 352° |
| 2026-04-30 12:52 | 23.16201 | 7.38898 | 38001 ft | 459 kts | 352° |
| 2026-04-30 12:53 | 23.21499 | 7.38137 | 36680 ft | 459 kts | 347° |
| 2026-04-30 12:53 | 23.25694 | 7.37535 | 36995 ft | 456 kts | 345° |
| 2026-04-30 12:53 | 23.28836 | 7.37083 | 37243 ft | 454 kts | 345° |
| 2026-04-30 12:54 | 23.31966 | 7.36632 | 37496 ft | 452 kts | 345° |
| 2026-04-30 12:54 | 23.34031 | 7.36334 | 37671 ft | 450 kts | 345° |
| 2026-04-30 12:54 | 23.38164 | 7.35738 | 37968 ft | 448 kts | 345° |
| 2026-04-30 12:54 | 23.41263 | 7.35287 | 38000 ft | 451 kts | 345° |
| 2026-04-30 12:55 | 23.46473 | 7.34525 | 37997 ft | 456 kts | 345° |
| 2026-04-30 12:55 | 23.52799 | 7.33613 | 38015 ft | 460 kts | 345° |
| 2026-04-30 12:56 | 23.59180 | 7.32920 | 38027 ft | 459 kts | 347° |
| 2026-04-30 12:56 | 23.65494 | 7.32322 | 38023 ft | 457 kts | 347° |
| 2026-04-30 12:57 | 23.71830 | 7.31684 | 38022 ft | 456 kts | 346° |
| 2026-04-30 12:57 | 23.78143 | 7.31019 | 38022 ft | 456 kts | 346° |
| 2026-04-30 12:58 | 23.84478 | 7.30345 | 38020 ft | 456 kts | 346° |
| 2026-04-30 12:58 | 23.90756 | 7.29679 | 38042 ft | 457 kts | 346° |
| 2026-04-30 12:59 | 23.97066 | 7.29011 | 38034 ft | 455 kts | 346° |
| 2026-04-30 12:59 | 24.03365 | 7.28343 | 38032 ft | 454 kts | 346° |
| 2026-04-30 13:00 | 24.09662 | 7.27673 | 38027 ft | 454 kts | 346° |
| 2026-04-30 13:00 | 24.15955 | 7.27002 | 38027 ft | 454 kts | 346° |
| 2026-04-30 13:01 | 24.22247 | 7.26333 | 38034 ft | 454 kts | 346° |
| 2026-04-30 13:01 | 24.28545 | 7.25663 | 38016 ft | 454 kts | 346° |
| 2026-04-30 13:02 | 24.34817 | 7.24994 | 38012 ft | 454 kts | 346° |
| 2026-04-30 13:02 | 24.41068 | 7.24326 | 38012 ft | 453 kts | 346° |
| 2026-04-30 13:03 | 24.47364 | 7.23653 | 38012 ft | 453 kts | 346° |
| 2026-04-30 13:03 | 24.53637 | 7.22982 | 38009 ft | 453 kts | 346° |
| 2026-04-30 13:04 | 24.59919 | 7.22309 | 38006 ft | 453 kts | 346° |
| 2026-04-30 13:04 | 24.66203 | 7.21635 | 38006 ft | 453 kts | 346° |
| 2026-04-30 13:05 | 24.72491 | 7.20961 | 38009 ft | 453 kts | 345° |
| 2026-04-30 13:06 | 24.81884 | 7.19951 | 38003 ft | 454 kts | 345° |
| 2026-04-30 13:06 | 24.88169 | 7.19275 | 38005 ft | 453 kts | 345° |
| 2026-04-30 13:07 | 24.94463 | 7.18598 | 38006 ft | 453 kts | 345° |
| 2026-04-30 13:07 | 25.00741 | 7.17924 | 37993 ft | 453 kts | 345° |
| 2026-04-30 13:08 | 25.07027 | 7.17248 | 38004 ft | 453 kts | 345° |
| 2026-04-30 13:08 | 25.13307 | 7.16571 | 38008 ft | 453 kts | 345° |
| 2026-04-30 13:09 | 25.19544 | 7.15899 | 38011 ft | 453 kts | 345° |
| 2026-04-30 13:09 | 25.25837 | 7.15221 | 38015 ft | 453 kts | 345° |
| 2026-04-30 13:10 | 25.32116 | 7.14542 | 38016 ft | 453 kts | 345° |
| 2026-04-30 13:10 | 25.38400 | 7.13863 | 38009 ft | 453 kts | 345° |
| 2026-04-30 13:11 | 25.44654 | 7.13186 | 38007 ft | 453 kts | 345° |
| 2026-04-30 13:11 | 25.50925 | 7.12507 | 38008 ft | 453 kts | 344° |
| 2026-04-30 13:12 | 25.57209 | 7.11826 | 38008 ft | 453 kts | 344° |
| 2026-04-30 13:12 | 25.63456 | 7.11148 | 38002 ft | 453 kts | 344° |
| 2026-04-30 13:13 | 25.72888 | 7.10123 | 37995 ft | 454 kts | 345° |
| 2026-04-30 13:14 | 25.82320 | 7.09098 | 37992 ft | 453 kts | 344° |
| 2026-04-30 13:14 | 25.91698 | 7.08076 | 37970 ft | 451 kts | 343° |
| 2026-04-30 13:15 | 26.01070 | 7.07051 | 37959 ft | 452 kts | 344° |
| 2026-04-30 13:16 | 26.07358 | 7.06374 | 37964 ft | 456 kts | 344° |
| 2026-04-30 13:16 | 26.13681 | 7.05699 | 37953 ft | 456 kts | 344° |
| 2026-04-30 13:17 | 26.23153 | 7.04688 | 37927 ft | 453 kts | 345° |
| 2026-04-30 13:18 | 26.32516 | 7.03687 | 37933 ft | 452 kts | 344° |
| 2026-04-30 13:18 | 26.41929 | 7.02668 | 37922 ft | 453 kts | 344° |
| 2026-04-30 13:19 | 26.48201 | 7.01992 | 37911 ft | 453 kts | 344° |
| 2026-04-30 13:19 | 26.54474 | 7.01317 | 37917 ft | 453 kts | 344° |
| 2026-04-30 13:20 | 26.60755 | 7.00650 | 37908 ft | 453 kts | 344° |
| 2026-04-30 13:20 | 26.66989 | 6.99973 | 37920 ft | 454 kts | 344° |
| 2026-04-30 13:21 | 26.73322 | 6.99271 | 37898 ft | 459 kts | 344° |
| 2026-04-30 13:22 | 26.82771 | 6.98257 | 37900 ft | 450 kts | 343° |
| 2026-04-30 13:22 | 26.92123 | 6.97265 | 37909 ft | 447 kts | 343° |
| 2026-04-30 13:23 | 27.01437 | 6.96224 | 37907 ft | 453 kts | 343° |
| 2026-04-30 13:24 | 27.13979 | 6.94855 | 37890 ft | 451 kts | 343° |
| 2026-04-30 13:25 | 27.26489 | 6.93490 | 37899 ft | 451 kts | 343° |
| 2026-04-30 13:26 | 27.42075 | 6.91781 | 37893 ft | 452 kts | 343° |
| 2026-04-30 13:28 | 27.57740 | 6.90062 | 37892 ft | 452 kts | 343° |
| 2026-04-30 13:28 | 27.67097 | 6.89033 | 37893 ft | 451 kts | 343° |
| 2026-04-30 13:29 | 27.79602 | 6.87652 | 37896 ft | 452 kts | 343° |
| 2026-04-30 13:31 | 27.95248 | 6.85922 | 37895 ft | 451 kts | 343° |
| 2026-04-30 13:32 | 28.10822 | 6.84194 | 37882 ft | 451 kts | 343° |
| 2026-04-30 13:33 | 28.23609 | 6.83782 | 37888 ft | 462 kts | 348° |
| 2026-04-30 13:34 | 28.33224 | 6.83708 | 37893 ft | 460 kts | 348° |
| 2026-04-30 13:35 | 28.45992 | 6.83579 | 37880 ft | 460 kts | 348° |
| 2026-04-30 13:36 | 28.58793 | 6.83448 | 37884 ft | 459 kts | 348° |
| 2026-04-30 13:36 | 28.68365 | 6.83346 | 37877 ft | 459 kts | 348° |
| 2026-04-30 13:37 | 28.77918 | 6.83245 | 37882 ft | 459 kts | 348° |
| 2026-04-30 13:38 | 28.87500 | 6.83146 | 37876 ft | 458 kts | 347° |
| 2026-04-30 13:39 | 29.00260 | 6.83012 | 37873 ft | 458 kts | 347° |
| 2026-04-30 13:40 | 29.09819 | 6.82912 | 37890 ft | 458 kts | 347° |
| 2026-04-30 13:40 | 29.16189 | 6.82847 | 37875 ft | 458 kts | 347° |
| 2026-04-30 13:41 | 29.22583 | 6.82779 | 37874 ft | 458 kts | 347° |
| 2026-04-30 13:41 | 29.28917 | 6.82712 | 37872 ft | 458 kts | 347° |
| 2026-04-30 13:42 | 29.35316 | 6.82643 | 37871 ft | 459 kts | 347° |
| 2026-04-30 13:42 | 29.43816 | 6.82554 | 37872 ft | 458 kts | 347° |
| 2026-04-30 13:43 | 29.50204 | 6.82488 | 37871 ft | 458 kts | 347° |
| 2026-04-30 13:43 | 29.56536 | 6.82420 | 37870 ft | 458 kts | 347° |
| 2026-04-30 13:44 | 29.62913 | 6.82352 | 37868 ft | 458 kts | 347° |
| 2026-04-30 13:44 | 29.69284 | 6.82285 | 37866 ft | 458 kts | 347° |
| 2026-04-30 13:45 | 29.78852 | 6.82184 | 37872 ft | 458 kts | 347° |
| 2026-04-30 13:46 | 29.85184 | 6.82115 | 37869 ft | 458 kts | 347° |
| 2026-04-30 13:46 | 29.91552 | 6.82046 | 37871 ft | 458 kts | 347° |
| 2026-04-30 13:47 | 29.97921 | 6.81978 | 37875 ft | 458 kts | 347° |
| 2026-04-30 13:47 | 30.04298 | 6.81911 | 37862 ft | 458 kts | 347° |
| 2026-04-30 13:48 | 30.10676 | 6.81842 | 37868 ft | 458 kts | 347° |
| 2026-04-30 13:48 | 30.17062 | 6.81773 | 37872 ft | 458 kts | 347° |
| 2026-04-30 13:49 | 30.23389 | 6.81704 | 37878 ft | 458 kts | 347° |
| 2026-04-30 13:49 | 30.29761 | 6.81637 | 37886 ft | 457 kts | 347° |
| 2026-04-30 13:50 | 30.36132 | 6.81569 | 37863 ft | 457 kts | 347° |
| 2026-04-30 13:50 | 30.45676 | 6.81465 | 37866 ft | 457 kts | 347° |
| 2026-04-30 13:51 | 30.52009 | 6.81397 | 37882 ft | 457 kts | 347° |
| 2026-04-30 13:51 | 30.58371 | 6.81329 | 37865 ft | 457 kts | 347° |
| 2026-04-30 13:52 | 30.64746 | 6.81260 | 37865 ft | 457 kts | 347° |
| 2026-04-30 13:52 | 30.71115 | 6.81190 | 37866 ft | 458 kts | 347° |
| 2026-04-30 13:53 | 30.77479 | 6.81121 | 37865 ft | 458 kts | 347° |
| 2026-04-30 13:53 | 30.83820 | 6.81053 | 37868 ft | 457 kts | 347° |
| 2026-04-30 13:54 | 30.90183 | 6.80985 | 37871 ft | 456 kts | 347° |
| 2026-04-30 13:54 | 30.96535 | 6.80914 | 37871 ft | 456 kts | 347° |
| 2026-04-30 13:55 | 31.02884 | 6.80844 | 37871 ft | 456 kts | 347° |
| 2026-04-30 13:55 | 31.09238 | 6.80774 | 37877 ft | 456 kts | 348° |
| 2026-04-30 13:56 | 31.15584 | 6.80707 | 37871 ft | 455 kts | 348° |
| 2026-04-30 13:56 | 31.21909 | 6.80639 | 37870 ft | 455 kts | 348° |
| 2026-04-30 13:57 | 31.28214 | 6.80569 | 37871 ft | 456 kts | 348° |
| 2026-04-30 13:57 | 31.34558 | 6.80499 | 37898 ft | 456 kts | 348° |
| 2026-04-30 13:58 | 31.44070 | 6.80394 | 37870 ft | 455 kts | 348° |
| 2026-04-30 13:59 | 31.50406 | 6.80324 | 37873 ft | 455 kts | 348° |
| 2026-04-30 13:59 | 31.56752 | 6.80253 | 37876 ft | 455 kts | 348° |
| 2026-04-30 14:00 | 31.63058 | 6.80183 | 37900 ft | 455 kts | 348° |
| 2026-04-30 14:00 | 31.72598 | 6.80079 | 37876 ft | 455 kts | 348° |
| 2026-04-30 14:01 | 31.78891 | 6.80009 | 37880 ft | 455 kts | 348° |
| 2026-04-30 14:01 | 31.85218 | 6.79938 | 37890 ft | 455 kts | 348° |
| 2026-04-30 14:02 | 31.91554 | 6.79867 | 37891 ft | 455 kts | 349° |
| 2026-04-30 14:02 | 31.97888 | 6.79797 | 37887 ft | 455 kts | 349° |
| 2026-04-30 14:03 | 32.04177 | 6.79728 | 37881 ft | 455 kts | 349° |
| 2026-04-30 14:03 | 32.10508 | 6.79656 | 37885 ft | 455 kts | 349° |
| 2026-04-30 14:04 | 32.16835 | 6.79585 | 37914 ft | 455 kts | 349° |
| 2026-04-30 14:04 | 32.23158 | 6.79514 | 37893 ft | 454 kts | 349° |
| 2026-04-30 14:05 | 32.29495 | 6.79444 | 37889 ft | 455 kts | 349° |
| 2026-04-30 14:05 | 32.35827 | 6.79372 | 37896 ft | 455 kts | 349° |
| 2026-04-30 14:06 | 32.45284 | 6.79265 | 37914 ft | 455 kts | 350° |
| 2026-04-30 14:07 | 32.54774 | 6.79159 | 37902 ft | 454 kts | 350° |
| 2026-04-30 14:08 | 32.64271 | 6.79052 | 37898 ft | 455 kts | 350° |
| 2026-04-30 14:08 | 32.73753 | 6.78943 | 37905 ft | 455 kts | 351° |
| 2026-04-30 14:09 | 32.80070 | 6.78873 | 37903 ft | 454 kts | 351° |
| 2026-04-30 14:10 | 32.89525 | 6.78766 | 37906 ft | 454 kts | 351° |
| 2026-04-30 14:10 | 32.95847 | 6.78694 | 37906 ft | 454 kts | 351° |
| 2026-04-30 14:11 | 33.02175 | 6.78621 | 37907 ft | 454 kts | 351° |
| 2026-04-30 14:11 | 33.08514 | 6.78549 | 37906 ft | 455 kts | 351° |
| 2026-04-30 14:12 | 33.14810 | 6.78477 | 37906 ft | 455 kts | 351° |
| 2026-04-30 14:12 | 33.21142 | 6.78405 | 37912 ft | 455 kts | 351° |
| 2026-04-30 14:13 | 33.27475 | 6.78333 | 37922 ft | 455 kts | 351° |
| 2026-04-30 14:13 | 33.33817 | 6.78260 | 37930 ft | 455 kts | 351° |
| 2026-04-30 14:14 | 33.40111 | 6.78188 | 37940 ft | 455 kts | 351° |
| 2026-04-30 14:14 | 33.46439 | 6.78115 | 37939 ft | 455 kts | 351° |
| 2026-04-30 14:15 | 33.52779 | 6.78035 | 37942 ft | 454 kts | 351° |
| 2026-04-30 14:15 | 33.59082 | 6.77695 | 37937 ft | 453 kts | 348° |
| 2026-04-30 14:16 | 33.65371 | 6.77235 | 37933 ft | 453 kts | 348° |
| 2026-04-30 14:16 | 33.71669 | 6.76812 | 37941 ft | 453 kts | 349° |
| 2026-04-30 14:17 | 33.77979 | 6.76422 | 37932 ft | 453 kts | 349° |
| 2026-04-30 14:17 | 33.84248 | 6.76042 | 37914 ft | 454 kts | 349° |
| 2026-04-30 14:18 | 33.90568 | 6.75659 | 37910 ft | 455 kts | 349° |
| 2026-04-30 14:18 | 34.00054 | 6.75081 | 37911 ft | 455 kts | 349° |
| 2026-04-30 14:19 | 34.09556 | 6.74497 | 37909 ft | 455 kts | 350° |
| 2026-04-30 14:20 | 34.15843 | 6.74111 | 37907 ft | 456 kts | 350° |
| 2026-04-30 14:20 | 34.25356 | 6.73527 | 37909 ft | 456 kts | 350° |
| 2026-04-30 14:21 | 34.31701 | 6.73136 | 37913 ft | 456 kts | 350° |
| 2026-04-30 14:22 | 34.41173 | 6.72551 | 37895 ft | 456 kts | 350° |
| 2026-04-30 14:22 | 34.50671 | 6.71964 | 37912 ft | 453 kts | 350° |
| 2026-04-30 14:23 | 34.63154 | 6.71193 | 37928 ft | 447 kts | 350° |
| 2026-04-30 14:24 | 34.72505 | 6.70606 | 37942 ft | 448 kts | 350° |
| 2026-04-30 14:25 | 34.84967 | 6.69832 | 37950 ft | 447 kts | 351° |
| 2026-04-30 14:26 | 34.94241 | 6.69266 | 37968 ft | 447 kts | 350° |
| 2026-04-30 14:27 | 35.03560 | 6.68693 | 37995 ft | 447 kts | 350° |
| 2026-04-30 14:27 | 35.09781 | 6.68310 | 38014 ft | 447 kts | 350° |
| 2026-04-30 14:28 | 35.19081 | 6.67740 | 38021 ft | 446 kts | 350° |
| 2026-04-30 14:28 | 35.25281 | 6.67356 | 38019 ft | 446 kts | 350° |
| 2026-04-30 14:29 | 35.36638 | 6.66650 | 38035 ft | 445 kts | 351° |
| 2026-04-30 14:31 | 35.53132 | 6.65625 | 38026 ft | 446 kts | 351° |
| 2026-04-30 14:31 | 35.62457 | 6.65043 | 38021 ft | 447 kts | 351° |
| 2026-04-30 14:32 | 35.70735 | 6.64526 | 38017 ft | 448 kts | 351° |
| 2026-04-30 14:33 | 35.76963 | 6.64136 | 38018 ft | 447 kts | 351° |
| 2026-04-30 14:33 | 35.86299 | 6.63551 | 38015 ft | 447 kts | 351° |
| 2026-04-30 14:34 | 35.92520 | 6.63160 | 38018 ft | 447 kts | 351° |
| 2026-04-30 14:34 | 35.98704 | 6.62770 | 38029 ft | 448 kts | 351° |
| 2026-04-30 14:35 | 36.08038 | 6.62181 | 38060 ft | 448 kts | 351° |
| 2026-04-30 14:36 | 36.14266 | 6.61788 | 38061 ft | 447 kts | 351° |
| 2026-04-30 14:36 | 36.20471 | 6.61395 | 38075 ft | 447 kts | 351° |
| 2026-04-30 14:37 | 36.26695 | 6.61000 | 38078 ft | 447 kts | 351° |
| 2026-04-30 14:37 | 36.32976 | 6.61384 | 38086 ft | 455 kts | 360° |
| 2026-04-30 14:38 | 36.39280 | 6.62298 | 38075 ft | 456 kts | 1° |
| 2026-04-30 14:38 | 36.45549 | 6.63273 | 38062 ft | 457 kts | 1° |
| 2026-04-30 14:39 | 36.51857 | 6.64247 | 38049 ft | 457 kts | 1° |
| 2026-04-30 14:39 | 36.58175 | 6.65214 | 38042 ft | 457 kts | 1° |
| 2026-04-30 14:40 | 36.67648 | 6.66661 | 38039 ft | 457 kts | 1° |
| 2026-04-30 14:40 | 36.73986 | 6.67632 | 38037 ft | 457 kts | 1° |
| 2026-04-30 14:41 | 36.80301 | 6.68602 | 38041 ft | 457 kts | 1° |
| 2026-04-30 14:41 | 36.86571 | 6.69563 | 38045 ft | 457 kts | 1° |
| 2026-04-30 14:42 | 36.92877 | 6.70533 | 38046 ft | 456 kts | 1° |
| 2026-04-30 14:42 | 36.99171 | 6.71498 | 38048 ft | 456 kts | 1° |
| 2026-04-30 14:43 | 37.05486 | 6.72473 | 38050 ft | 456 kts | 1° |
| 2026-04-30 14:43 | 37.11784 | 6.73449 | 38053 ft | 455 kts | 1° |
| 2026-04-30 14:44 | 37.18073 | 6.74424 | 38053 ft | 455 kts | 1° |
| 2026-04-30 14:44 | 37.24377 | 6.75402 | 38059 ft | 455 kts | 1° |
| 2026-04-30 14:45 | 37.30666 | 6.76378 | 38057 ft | 455 kts | 1° |
| 2026-04-30 14:45 | 37.36901 | 6.77350 | 38048 ft | 454 kts | 1° |
| 2026-04-30 14:46 | 37.43167 | 6.78327 | 38054 ft | 453 kts | 1° |
| 2026-04-30 14:46 | 37.49447 | 6.79307 | 38048 ft | 453 kts | 1° |
| 2026-04-30 14:47 | 37.55709 | 6.80286 | 38048 ft | 453 kts | 1° |
| 2026-04-30 14:47 | 37.61966 | 6.81267 | 38049 ft | 453 kts | 1° |
| 2026-04-30 14:48 | 37.68169 | 6.82241 | 38048 ft | 452 kts | 1° |
| 2026-04-30 14:48 | 37.74427 | 6.83224 | 38047 ft | 453 kts | 1° |
| 2026-04-30 14:49 | 37.80691 | 6.84211 | 38047 ft | 452 kts | 1° |
| 2026-04-30 14:49 | 37.86880 | 6.85188 | 38051 ft | 450 kts | 1° |
| 2026-04-30 14:50 | 37.96192 | 6.86660 | 38055 ft | 449 kts | 1° |
| 2026-04-30 14:51 | 38.05500 | 6.88135 | 38052 ft | 449 kts | 1° |
| 2026-04-30 14:52 | 38.14804 | 6.89613 | 38050 ft | 449 kts | 1° |
| 2026-04-30 14:52 | 38.24093 | 6.91093 | 38043 ft | 448 kts | 1° |
| 2026-04-30 14:53 | 38.33350 | 6.92571 | 38057 ft | 448 kts | 1° |
| 2026-04-30 14:54 | 38.45740 | 6.94556 | 38057 ft | 449 kts | 1° |
| 2026-04-30 14:55 | 38.55028 | 6.96049 | 38054 ft | 448 kts | 1° |
| 2026-04-30 14:56 | 38.67386 | 6.98040 | 38056 ft | 448 kts | 1° |
| 2026-04-30 14:57 | 38.76633 | 6.99535 | 38056 ft | 448 kts | 1° |
| 2026-04-30 14:58 | 38.89004 | 7.01541 | 38059 ft | 448 kts | 1° |
| 2026-04-30 14:58 | 38.98275 | 7.03050 | 38053 ft | 447 kts | 1° |
| 2026-04-30 15:00 | 39.13700 | 7.05007 | 38063 ft | 445 kts | 358° |
| 2026-04-30 15:01 | 39.26014 | 7.06441 | 38064 ft | 445 kts | 359° |
| 2026-04-30 15:01 | 39.35256 | 7.07556 | 38059 ft | 445 kts | 359° |
| 2026-04-30 15:02 | 39.41436 | 7.08304 | 38061 ft | 444 kts | 358° |
| 2026-04-30 15:03 | 39.56751 | 7.10156 | 38059 ft | 443 kts | 358° |
| 2026-04-30 15:04 | 39.72101 | 7.12021 | 38062 ft | 442 kts | 358° |
| 2026-04-30 15:06 | 39.87389 | 7.13887 | 38059 ft | 442 kts | 358° |
| 2026-04-30 15:07 | 39.99653 | 7.15390 | 38059 ft | 442 kts | 358° |
| 2026-04-30 15:08 | 40.11877 | 7.16893 | 38056 ft | 442 kts | 358° |
| 2026-04-30 15:09 | 40.27213 | 7.18868 | 38051 ft | 443 kts | 358° |
| 2026-04-30 15:10 | 40.39422 | 7.20557 | 38051 ft | 442 kts | 358° |
| 2026-04-30 15:11 | 40.57772 | 7.23065 | 38070 ft | 442 kts | 358° |
| 2026-04-30 15:13 | 40.73078 | 7.25169 | 38067 ft | 442 kts | 358° |
| 2026-04-30 15:14 | 40.93404 | 7.27977 | 38072 ft | 441 kts | 358° |
| 2026-04-30 15:17 | 41.21896 | 7.31943 | 38077 ft | 442 kts | 358° |
| 2026-04-30 15:19 | 41.45382 | 7.35238 | 38090 ft | 444 kts | 358° |